createdAt,value
2022-12-17T00:01:08.491Z,72.56
2022-12-17T00:02:29.555Z,72.41
2022-12-17T00:03:50.726Z,72.78
2022-12-17T00:05:11.531Z,72.30
2022-12-17T00:06:32.571Z,73.08
2022-12-17T00:07:53.401Z,72.72
2022-12-17T00:09:15.796Z,73.06
2022-12-17T00:10:36.635Z,73.02
2022-12-17T00:11:57.601Z,72.79
2022-12-17T00:13:18.733Z,72.93
2022-12-17T00:14:39.420Z,73.18
2022-12-17T00:16:02.030Z,73.21
2022-12-17T00:17:22.777Z,73.07
2022-12-17T00:18:43.680Z,73.22
2022-12-17T00:20:04.815Z,72.53
2022-12-17T00:21:25.934Z,73.23
2022-12-17T00:22:46.841Z,72.78
2022-12-17T00:24:07.604Z,73.21
2022-12-17T00:25:30.796Z,73.01
2022-12-17T00:26:52.189Z,73.04
2022-12-17T00:28:13.264Z,72.75
2022-12-17T00:29:34.203Z,72.18
2022-12-17T00:30:54.960Z,72.62
2022-12-17T00:32:16.982Z,72.24
2022-12-17T00:33:38.235Z,72.25
2022-12-17T00:34:59.451Z,72.73
2022-12-17T00:36:20.281Z,72.83
2022-12-17T00:37:41.091Z,73.14
2022-12-17T00:39:04.079Z,73.63
2022-12-17T00:40:26.084Z,72.73
2022-12-17T00:41:46.857Z,73.67
2022-12-17T00:43:18.219Z,73.43
2022-12-17T00:44:39.287Z,73.34
2022-12-17T00:46:00.049Z,72.89
2022-12-17T00:47:22.029Z,72.46
2022-12-17T00:48:43.250Z,72.52
2022-12-17T00:50:04.089Z,72.18
2022-12-17T00:51:25.004Z,72.31
2022-12-17T00:52:45.715Z,72.41
2022-12-17T00:54:06.601Z,71.75
2022-12-17T00:55:39.239Z,71.83
2022-12-17T00:57:02.129Z,71.71
2022-12-17T00:58:23.321Z,71.80
2022-12-17T00:59:44.487Z,71.30
2022-12-17T01:01:10.718Z,71.01
2022-12-17T01:02:33.926Z,70.54
2022-12-17T01:03:54.622Z,71.59
2022-12-17T01:05:17.527Z,72.13
2022-12-17T01:06:38.416Z,72.07
2022-12-17T01:07:59.521Z,72.35
2022-12-17T01:09:20.380Z,72.34
2022-12-17T01:10:41.279Z,72.08
2022-12-17T01:12:02.109Z,72.10
2022-12-17T01:13:22.892Z,72.43
2022-12-17T01:14:44.661Z,72.76
2022-12-17T01:16:05.753Z,72.18
2022-12-17T01:17:23.333Z,71.96
2022-12-17T01:18:45.293Z,71.93
2022-12-17T01:20:06.192Z,72.26
2022-12-17T01:21:26.891Z,72.35
2022-12-17T01:22:48.419Z,71.66
2022-12-17T01:24:09.292Z,71.53
2022-12-17T01:25:30.880Z,71.38
2022-12-17T01:26:51.623Z,71.04
2022-12-17T01:28:08.886Z,71.18
2022-12-17T01:29:30.431Z,71.32
2022-12-17T01:30:51.150Z,70.79
2022-12-17T01:32:12.159Z,70.93
2022-12-17T01:33:33.525Z,71.34
2022-12-17T01:34:55.817Z,71.67
2022-12-17T01:36:19.478Z,71.14
2022-12-17T01:37:54.654Z,70.54
2022-12-17T01:39:27.227Z,70.60
2022-12-17T01:40:44.260Z,70.44
2022-12-17T01:42:05.273Z,70.63
2022-12-17T01:43:30.286Z,71.39
2022-12-17T01:45:07.223Z,71.33
2022-12-17T01:46:28.079Z,71.45
2022-12-17T01:47:51.597Z,70.92
2022-12-17T01:49:12.503Z,70.71
2022-12-17T01:50:37.008Z,70.95
2022-12-17T01:51:57.956Z,71.29
2022-12-17T01:53:21.489Z,71.40
2022-12-17T01:54:42.134Z,71.10
2022-12-17T01:56:03.564Z,71.39
2022-12-17T01:57:25.980Z,71.48
2022-12-17T01:58:46.931Z,71.50
2022-12-17T02:00:18.988Z,71.53
2022-12-17T02:01:40.171Z,70.83
2022-12-17T02:03:01.363Z,70.82
2022-12-17T02:04:21.981Z,71.23
2022-12-17T02:05:47.685Z,71.08
2022-12-17T02:07:17.734Z,70.91
2022-12-17T02:08:47.374Z,70.98
2022-12-17T02:10:24.804Z,71.41
2022-12-17T02:11:54.420Z,72.00
2022-12-17T02:13:19.029Z,71.71
2022-12-17T02:14:47.534Z,71.43
2022-12-17T02:16:13.054Z,70.92
2022-12-17T02:17:40.025Z,70.58
2022-12-17T02:19:07.066Z,70.28
2022-12-17T02:20:38.529Z,69.50
2022-12-17T02:22:02.499Z,70.04
2022-12-17T02:23:36.455Z,69.89
2022-12-17T02:25:05.957Z,70.33
2022-12-17T02:26:32.984Z,71.02
2022-12-17T02:27:55.488Z,71.16
2022-12-17T02:29:17.541Z,70.67
2022-12-17T02:30:38.893Z,70.85
2022-12-17T02:32:04.885Z,71.96
2022-12-17T02:33:26.887Z,72.20
2022-12-17T02:34:47.860Z,72.53
2022-12-17T02:36:13.295Z,72.76
2022-12-17T02:37:34.318Z,72.13
2022-12-17T02:38:56.743Z,72.09
2022-12-17T02:40:18.261Z,71.66
2022-12-17T02:41:45.638Z,70.87
2022-12-17T02:43:08.630Z,71.72
2022-12-17T02:44:32.448Z,72.14
2022-12-17T02:45:53.524Z,72.16
2022-12-17T02:47:16.479Z,72.08
2022-12-17T02:48:37.672Z,71.30
2022-12-17T02:49:58.531Z,71.46
2022-12-17T02:51:20.049Z,71.21
2022-12-17T02:52:41.980Z,71.66
2022-12-17T02:54:04.124Z,71.76
2022-12-17T02:55:26.053Z,71.21
2022-12-17T02:56:46.968Z,71.36
2022-12-17T02:58:09.038Z,70.90
2022-12-17T02:59:29.978Z,71.08
2022-12-17T03:00:51.193Z,71.53
2022-12-17T03:02:12.136Z,71.71
2022-12-17T03:03:32.965Z,71.73
2022-12-17T03:04:53.821Z,71.63
2022-12-17T03:06:14.729Z,71.31
2022-12-17T03:07:35.407Z,70.97
2022-12-17T03:08:56.300Z,70.51
2022-12-17T03:10:17.321Z,70.93
2022-12-17T03:11:38.213Z,70.86
2022-12-17T03:12:59.441Z,71.16
2022-12-17T03:14:21.658Z,71.46
2022-12-17T03:15:42.401Z,70.96
2022-12-17T03:17:03.456Z,71.84
2022-12-17T03:18:24.385Z,72.01
2022-12-17T03:19:56.733Z,72.37
2022-12-17T03:21:17.808Z,72.55
2022-12-17T03:22:38.582Z,72.55
2022-12-17T03:23:59.740Z,72.79
2022-12-17T03:25:20.503Z,72.82
2022-12-17T03:26:41.288Z,72.68
2022-12-17T03:28:02.046Z,73.38
2022-12-17T03:29:24.352Z,73.83
2022-12-17T03:30:48.931Z,74.40
2022-12-17T03:32:11.205Z,74.11
2022-12-17T03:33:32.095Z,74.33
2022-12-17T03:34:55.382Z,73.88
2022-12-17T03:36:15.909Z,74.44
2022-12-17T03:37:45.192Z,73.91
2022-12-17T03:39:05.857Z,73.44
2022-12-17T03:40:27.475Z,73.40
2022-12-17T03:41:48.229Z,73.55
2022-12-17T03:43:09.250Z,73.51
2022-12-17T03:44:38.022Z,73.43
2022-12-17T03:45:58.731Z,74.18
2022-12-17T03:47:19.531Z,73.44
2022-12-17T03:48:40.082Z,73.47
2022-12-17T03:50:03.424Z,72.58
2022-12-17T03:51:24.528Z,72.24
2022-12-17T03:52:45.457Z,72.74
2022-12-17T03:54:06.261Z,72.33
2022-12-17T03:55:27.130Z,72.99
2022-12-17T03:56:48.126Z,72.25
2022-12-17T03:58:09.105Z,72.16
2022-12-17T03:59:31.571Z,71.99
2022-12-17T04:00:52.377Z,72.06
2022-12-17T04:02:13.071Z,72.37
2022-12-17T04:03:34.475Z,72.97
2022-12-17T04:04:55.817Z,72.61
2022-12-17T04:06:16.678Z,72.67
2022-12-17T04:07:37.427Z,72.84
2022-12-17T04:08:58.289Z,72.79
2022-12-17T04:10:19.125Z,72.26
2022-12-17T04:11:39.966Z,72.28
2022-12-17T04:13:00.751Z,71.66
2022-12-17T04:14:21.948Z,72.41
2022-12-17T04:15:43.915Z,72.26
2022-12-17T04:17:05.276Z,72.38
2022-12-17T04:18:26.436Z,72.77
2022-12-17T04:19:47.594Z,72.54
2022-12-17T04:21:08.467Z,72.48
2022-12-17T04:22:29.698Z,72.35
2022-12-17T04:23:50.457Z,72.42
2022-12-17T04:25:11.338Z,71.93
2022-12-17T04:26:32.441Z,71.60
2022-12-17T04:27:53.473Z,71.34
2022-12-17T04:29:14.526Z,71.02
2022-12-17T04:30:35.853Z,70.86
2022-12-17T04:31:57.881Z,70.20
2022-12-17T04:33:18.705Z,71.10
2022-12-17T04:34:39.585Z,71.05
2022-12-17T04:36:00.311Z,70.69
2022-12-17T04:37:21.161Z,69.99
2022-12-17T04:38:41.981Z,69.92
2022-12-17T04:40:02.764Z,70.55
2022-12-17T04:41:23.647Z,71.22
2022-12-17T04:42:44.479Z,70.96
2022-12-17T04:44:05.281Z,70.51
2022-12-17T04:45:26.911Z,70.62
2022-12-17T04:46:47.834Z,70.08
2022-12-17T04:48:10.020Z,70.17
2022-12-17T04:49:30.884Z,70.26
2022-12-17T04:50:51.873Z,70.67
2022-12-17T04:52:12.828Z,70.15
2022-12-17T04:53:34.220Z,71.50
2022-12-17T04:54:55.362Z,71.74
2022-12-17T04:56:16.227Z,71.95
2022-12-17T04:57:37.123Z,71.50
2022-12-17T04:58:58.637Z,71.09
2022-12-17T05:00:19.580Z,71.27
2022-12-17T05:01:40.521Z,71.25
2022-12-17T05:03:01.541Z,70.76
2022-12-17T05:04:24.004Z,71.14
2022-12-17T05:05:44.078Z,70.93
2022-12-17T05:07:05.078Z,71.14
2022-12-17T05:08:25.853Z,71.23
2022-12-17T05:09:46.688Z,71.00
2022-12-17T05:11:07.654Z,71.49
2022-12-17T05:12:43.155Z,72.17
2022-12-17T05:14:04.154Z,71.41
2022-12-17T05:15:25.958Z,71.49
2022-12-17T05:16:46.797Z,71.73
2022-12-17T05:18:07.489Z,71.30
2022-12-17T05:19:29.539Z,71.26
2022-12-17T05:20:50.477Z,71.22
2022-12-17T05:22:12.507Z,71.43
2022-12-17T05:23:33.273Z,71.42
2022-12-17T05:24:53.948Z,71.50
2022-12-17T05:26:21.528Z,70.72
2022-12-17T05:27:42.337Z,70.85
2022-12-17T05:29:03.253Z,70.77
2022-12-17T05:30:24.711Z,70.46
2022-12-17T05:31:57.261Z,70.10
2022-12-17T05:33:19.075Z,70.96
2022-12-17T05:34:41.793Z,70.97
2022-12-17T05:36:02.800Z,71.20
2022-12-17T05:37:23.658Z,71.09
2022-12-17T05:38:44.615Z,70.76
2022-12-17T05:40:12.301Z,71.16
2022-12-17T05:41:33.491Z,71.21
2022-12-17T05:42:54.140Z,71.24
2022-12-17T05:44:15.083Z,71.16
2022-12-17T05:45:35.935Z,71.47
2022-12-17T05:46:56.756Z,71.02
2022-12-17T05:48:17.653Z,70.92
2022-12-17T05:49:38.650Z,71.98
2022-12-17T05:51:09.187Z,72.50
2022-12-17T05:52:31.140Z,72.50
2022-12-17T05:53:52.147Z,72.49
2022-12-17T05:55:13.054Z,72.29
2022-12-17T05:56:34.025Z,71.37
2022-12-17T05:57:56.723Z,71.82
2022-12-17T05:59:17.649Z,71.94
2022-12-17T06:00:38.467Z,71.87
2022-12-17T06:01:59.508Z,71.71
2022-12-17T06:03:21.861Z,71.73
2022-12-17T06:04:42.607Z,71.45
2022-12-17T06:06:04.827Z,71.79
2022-12-17T06:07:31.232Z,72.70
2022-12-17T06:08:51.863Z,72.18
2022-12-17T06:10:12.417Z,71.75
2022-12-17T06:11:33.281Z,71.98
2022-12-17T06:12:54.160Z,71.78
2022-12-17T06:14:14.638Z,71.51
2022-12-17T06:15:36.022Z,72.35
2022-12-17T06:16:57.128Z,72.13
2022-12-17T06:18:17.773Z,71.99
2022-12-17T06:19:38.906Z,71.66
2022-12-17T06:20:59.764Z,71.88
2022-12-17T06:22:21.837Z,71.86
2022-12-17T06:23:42.836Z,71.80
2022-12-17T06:25:03.582Z,72.02
2022-12-17T06:26:24.381Z,71.96
2022-12-17T06:27:45.424Z,71.99
2022-12-17T06:29:06.361Z,71.82
2022-12-17T06:30:28.118Z,71.88
2022-12-17T06:31:48.940Z,71.84
2022-12-17T06:33:21.203Z,72.15
2022-12-17T06:34:41.793Z,72.44
2022-12-17T06:36:02.383Z,72.33
2022-12-17T06:37:24.685Z,72.25
2022-12-17T06:38:45.541Z,72.37
2022-12-17T06:40:08.276Z,72.44
2022-12-17T06:41:28.870Z,73.33
2022-12-17T06:42:49.663Z,72.98
2022-12-17T06:44:10.642Z,72.67
2022-12-17T06:45:28.015Z,72.50
2022-12-17T06:46:48.947Z,71.98
2022-12-17T06:48:09.948Z,71.80
2022-12-17T06:49:31.090Z,72.44
2022-12-17T06:50:51.951Z,72.42
2022-12-17T06:52:12.841Z,72.75
2022-12-17T06:53:35.260Z,72.46
2022-12-17T06:54:56.338Z,71.71
2022-12-17T06:56:29.297Z,71.94
2022-12-17T06:57:50.687Z,71.86
2022-12-17T06:59:11.549Z,71.79
2022-12-17T07:00:35.705Z,71.42
2022-12-17T07:01:56.753Z,71.33
2022-12-17T07:03:17.983Z,71.47
2022-12-17T07:04:38.552Z,72.55
2022-12-17T07:05:59.425Z,72.11
2022-12-17T07:07:20.889Z,71.94
2022-12-17T07:08:43.078Z,71.88
2022-12-17T07:10:05.915Z,72.13
2022-12-17T07:11:29.922Z,71.97
2022-12-17T07:12:50.958Z,71.90
2022-12-17T07:14:11.789Z,72.02
2022-12-17T07:15:32.592Z,72.16
2022-12-17T07:16:53.335Z,71.35
2022-12-17T07:18:15.080Z,71.47
2022-12-17T07:19:35.967Z,71.44
2022-12-17T07:20:56.909Z,71.68
2022-12-17T07:22:17.809Z,71.42
2022-12-17T07:23:39.172Z,71.38
2022-12-17T07:25:01.242Z,71.90
2022-12-17T07:26:22.067Z,71.55
2022-12-17T07:27:42.585Z,71.37
2022-12-17T07:29:03.452Z,71.20
2022-12-17T07:30:25.403Z,71.48
2022-12-17T07:31:46.099Z,72.73
2022-12-17T07:33:07.151Z,72.28
2022-12-17T07:34:28.061Z,71.92
2022-12-17T07:35:48.916Z,71.86
2022-12-17T07:37:09.575Z,72.25
2022-12-17T07:38:30.612Z,72.30
2022-12-17T07:39:51.656Z,72.20
2022-12-17T07:41:13.815Z,72.19
2022-12-17T07:42:34.783Z,72.76
2022-12-17T07:43:55.707Z,72.72
2022-12-17T07:45:16.379Z,72.36
2022-12-17T07:46:37.138Z,71.97
2022-12-17T07:47:58.012Z,71.84
2022-12-17T07:49:24.005Z,71.92
2022-12-17T07:50:46.425Z,71.39
2022-12-17T07:52:07.571Z,71.19
2022-12-17T07:53:37.005Z,71.29
2022-12-17T07:54:58.012Z,71.47
2022-12-17T07:56:20.736Z,72.07
2022-12-17T07:57:49.873Z,71.80
2022-12-17T07:59:10.531Z,71.65
2022-12-17T08:00:32.666Z,71.64
2022-12-17T08:01:53.833Z,71.92
2022-12-17T08:03:16.081Z,71.99
2022-12-17T08:04:37.465Z,71.72
2022-12-17T08:05:58.235Z,72.06
2022-12-17T08:07:19.177Z,72.50
2022-12-17T08:08:39.983Z,71.60
2022-12-17T08:09:57.014Z,71.77
2022-12-17T08:11:17.878Z,71.81
2022-12-17T08:12:39.972Z,72.05
2022-12-17T08:14:00.841Z,72.01
2022-12-17T08:15:21.683Z,72.30
2022-12-17T08:16:48.001Z,72.41
2022-12-17T08:18:26.714Z,72.43
2022-12-17T08:19:47.726Z,72.52
2022-12-17T08:21:09.434Z,72.57
2022-12-17T08:22:30.514Z,72.37
2022-12-17T08:23:51.262Z,72.00
2022-12-17T08:25:11.829Z,71.73
2022-12-17T08:26:32.510Z,71.56
2022-12-17T08:27:54.588Z,71.40
2022-12-17T08:29:15.377Z,71.34
2022-12-17T08:30:36.218Z,71.50
2022-12-17T08:31:57.084Z,71.62
2022-12-17T08:33:21.922Z,71.23
2022-12-17T08:34:54.337Z,71.38
2022-12-17T08:36:16.180Z,69.76
2022-12-17T08:37:36.926Z,70.88
2022-12-17T08:38:58.207Z,71.00
2022-12-17T08:40:19.026Z,71.43
2022-12-17T08:41:39.906Z,70.45
2022-12-17T08:43:01.795Z,70.52
2022-12-17T08:44:28.325Z,71.04
2022-12-17T08:45:49.236Z,70.69
2022-12-17T08:47:10.053Z,70.20
2022-12-17T08:48:30.921Z,70.12
2022-12-17T08:49:51.756Z,70.15
2022-12-17T08:51:12.754Z,69.99
2022-12-17T08:52:33.702Z,69.70
2022-12-17T08:53:54.562Z,70.00
2022-12-17T08:55:15.795Z,70.11
2022-12-17T08:56:36.426Z,69.30
2022-12-17T08:57:53.620Z,70.34
2022-12-17T08:59:16.115Z,69.94
2022-12-17T09:00:36.840Z,69.48
2022-12-17T09:01:58.025Z,68.96
2022-12-17T09:03:19.743Z,69.97
2022-12-17T09:04:40.631Z,69.95
2022-12-17T09:06:01.920Z,70.10
2022-12-17T09:07:22.861Z,69.66
2022-12-17T09:08:43.839Z,70.26
2022-12-17T09:10:04.720Z,70.23
2022-12-17T09:11:25.440Z,70.20
2022-12-17T09:12:46.050Z,69.80
2022-12-17T09:14:06.733Z,69.50
2022-12-17T09:15:29.433Z,69.41
2022-12-17T09:16:50.583Z,69.09
2022-12-17T09:18:12.047Z,68.77
2022-12-17T09:19:33.457Z,69.22
2022-12-17T09:20:54.341Z,69.64
2022-12-17T09:22:15.175Z,69.87
2022-12-17T09:23:36.946Z,68.83
2022-12-17T09:24:57.973Z,68.86
2022-12-17T09:26:18.781Z,68.87
2022-12-17T09:27:39.770Z,69.01
2022-12-17T09:29:15.509Z,68.61
2022-12-17T09:30:37.537Z,68.94
2022-12-17T09:31:58.311Z,68.58
2022-12-17T09:33:18.619Z,68.88
2022-12-17T09:34:39.477Z,69.45
2022-12-17T09:36:00.112Z,69.31
2022-12-17T09:37:21.652Z,68.59
2022-12-17T09:38:42.621Z,68.41
2022-12-17T09:40:03.107Z,68.00
2022-12-17T09:41:37.598Z,68.97
2022-12-17T09:43:04.233Z,69.11
2022-12-17T09:44:32.885Z,68.74
2022-12-17T09:46:05.482Z,68.96
2022-12-17T09:47:33.824Z,69.42
2022-12-17T09:49:06.475Z,68.11
2022-12-17T09:50:33.230Z,67.93
2022-12-17T09:51:53.940Z,68.12
2022-12-17T09:53:15.188Z,68.10
2022-12-17T09:54:45.103Z,69.14
2022-12-17T09:56:08.525Z,68.77
2022-12-17T09:57:35.417Z,68.73
2022-12-17T09:58:58.920Z,68.53
2022-12-17T10:00:22.325Z,69.30
2022-12-17T10:01:47.567Z,68.19
2022-12-17T10:03:08.749Z,66.98
2022-12-17T10:04:33.918Z,66.09
2022-12-17T10:05:55.847Z,65.53
2022-12-17T10:07:16.833Z,65.28
2022-12-17T10:08:36.755Z,65.03
2022-12-17T10:09:57.768Z,65.07
2022-12-17T10:11:37.217Z,64.71
2022-12-17T10:12:57.881Z,65.04
2022-12-17T10:14:18.729Z,65.83
2022-12-17T10:15:39.649Z,66.01
2022-12-17T10:17:10.091Z,66.09
2022-12-17T10:18:35.389Z,66.23
2022-12-17T10:20:00.934Z,66.87
2022-12-17T10:21:25.323Z,66.52
2022-12-17T10:22:46.550Z,66.11
2022-12-17T10:24:07.843Z,65.42
2022-12-17T10:25:34.323Z,65.13
2022-12-17T10:26:55.554Z,64.90
2022-12-17T10:28:20.951Z,64.03
2022-12-17T10:29:45.555Z,64.31
2022-12-17T10:31:16.994Z,64.36
2022-12-17T10:40:51.524Z,62.82
2022-12-17T10:42:16.996Z,63.09
2022-12-17T10:43:49.311Z,63.15
2022-12-17T10:45:10.065Z,63.24
2022-12-17T10:46:30.923Z,62.70
2022-12-17T10:47:53.453Z,62.83
2022-12-17T10:49:28.757Z,63.57
2022-12-17T10:50:51.758Z,63.31
2022-12-17T10:52:19.072Z,64.12
2022-12-17T10:53:42.793Z,63.58
2022-12-17T10:55:19.820Z,64.06
2022-12-17T10:56:45.938Z,64.40
2022-12-17T10:58:09.373Z,63.85
2022-12-17T10:59:40.828Z,64.14
2022-12-17T11:01:02.812Z,63.63
2022-12-17T11:02:35.796Z,64.28
2022-12-17T11:04:09.523Z,64.92
2022-12-17T11:05:41.895Z,64.62
2022-12-17T11:07:05.469Z,64.85
2022-12-17T11:08:27.666Z,64.94
2022-12-17T11:10:03.675Z,64.81
2022-12-17T11:11:31.628Z,64.35
2022-12-17T11:12:57.617Z,64.82
2022-12-17T11:14:21.934Z,64.62
2022-12-17T11:15:50.797Z,64.71
2022-12-17T11:17:15.182Z,64.92
2022-12-17T11:18:40.854Z,65.48
2022-12-17T11:20:07.948Z,65.61
2022-12-17T11:21:33.496Z,65.85
2022-12-17T11:23:01.485Z,66.44
2022-12-17T11:24:24.923Z,66.59
2022-12-17T11:25:52.858Z,66.55
2022-12-17T11:27:15.846Z,67.00
2022-12-17T11:28:41.670Z,67.11
2022-12-17T11:30:02.679Z,67.17
2022-12-17T11:31:38.347Z,67.00
2022-12-17T11:33:18.424Z,66.73
2022-12-17T11:34:48.169Z,67.23
2022-12-17T11:36:15.843Z,67.24
2022-12-17T11:37:39.418Z,67.41
2022-12-17T11:39:06.835Z,67.57
2022-12-17T11:40:41.039Z,68.78
2022-12-17T11:42:12.505Z,68.48
2022-12-17T11:43:40.712Z,69.41
2022-12-17T11:45:10.229Z,69.54
2022-12-17T11:46:45.116Z,70.00
2022-12-17T11:48:13.976Z,69.61
2022-12-17T11:49:48.762Z,68.86
2022-12-17T11:51:16.535Z,68.33
2022-12-17T11:52:47.599Z,68.02
2022-12-17T11:54:19.736Z,67.95
2022-12-17T11:55:50.450Z,68.00
2022-12-17T11:57:18.736Z,68.51
2022-12-17T11:58:51.479Z,68.63
2022-12-17T12:00:20.280Z,69.29
2022-12-17T12:01:50.648Z,69.11
2022-12-17T12:03:24.142Z,69.28
2022-12-17T12:05:02.324Z,68.04
2022-12-17T12:06:34.592Z,68.12
2022-12-17T12:08:05.416Z,68.07
2022-12-17T12:09:31.554Z,67.88
2022-12-17T12:11:01.682Z,67.68
2022-12-17T12:12:34.284Z,66.45
2022-12-17T12:14:03.301Z,65.42
2022-12-17T12:15:39.868Z,65.74
2022-12-17T12:17:08.821Z,66.64
2022-12-17T12:18:35.246Z,66.85
2022-12-17T12:20:06.137Z,66.44
2022-12-17T12:21:51.335Z,66.95
2022-12-17T12:23:21.404Z,67.16
2022-12-17T12:25:10.155Z,65.78
2022-12-17T12:26:35.188Z,65.76
2022-12-17T12:28:05.004Z,65.85
2022-12-17T12:29:37.687Z,66.41
2022-12-17T12:31:09.047Z,65.45
2022-12-17T12:32:39.169Z,64.63
2022-12-17T12:34:04.647Z,62.87
2022-12-17T12:35:33.536Z,62.03
2022-12-17T12:36:59.071Z,60.19
2022-12-17T12:38:20.896Z,59.93
2022-12-17T12:39:49.864Z,60.15
2022-12-17T12:41:18.059Z,61.30
2022-12-17T12:42:46.662Z,60.20
2022-12-17T12:44:14.024Z,59.23
2022-12-17T12:45:57.549Z,57.97
2022-12-17T12:47:23.340Z,57.66
2022-12-17T12:48:55.448Z,58.15
2022-12-17T12:50:27.967Z,59.75
2022-12-17T12:51:53.123Z,61.03
2022-12-17T12:53:18.743Z,61.81
2022-12-17T12:54:46.004Z,62.42
2022-12-17T12:56:07.040Z,63.12
2022-12-17T12:57:50.463Z,63.39
2022-12-17T12:59:23.486Z,63.41
2022-12-17T13:00:56.513Z,64.98
2022-12-17T13:02:17.452Z,65.25
2022-12-17T13:03:47.619Z,65.88
2022-12-17T13:05:13.039Z,66.21
2022-12-17T13:06:37.622Z,65.66
2022-12-17T13:07:39.923Z,65.68
2022-12-17T13:08:44.652Z,66.13
2022-12-17T13:09:50.392Z,66.32
2022-12-17T13:10:55.080Z,66.84
2022-12-17T13:12:17.147Z,66.91
2022-12-17T13:13:32.409Z,66.70
2022-12-17T13:14:46.235Z,66.86
2022-12-17T13:15:54.748Z,67.34
2022-12-17T13:17:03.644Z,66.72
2022-12-17T13:18:20.877Z,66.83
2022-12-17T13:19:37.957Z,67.25
2022-12-17T13:20:40.806Z,67.38
2022-12-17T13:21:45.013Z,67.45
2022-12-17T13:22:52.148Z,67.47
2022-12-17T13:23:57.653Z,67.43
2022-12-17T13:25:17.746Z,67.61
2022-12-17T13:26:24.016Z,67.75
2022-12-17T13:27:30.844Z,68.02
2022-12-17T13:28:41.126Z,68.19
2022-12-17T13:29:44.523Z,67.94
2022-12-17T13:30:46.902Z,67.78
2022-12-17T13:32:04.449Z,67.78
2022-12-17T13:33:24.985Z,67.55
2022-12-17T13:34:36.066Z,67.45
2022-12-17T13:35:43.515Z,67.66
2022-12-17T13:36:53.749Z,68.11
2022-12-17T13:38:08.784Z,67.72
2022-12-17T13:39:31.256Z,67.22
2022-12-17T13:40:43.754Z,66.59
2022-12-17T13:41:46.163Z,66.22
2022-12-17T13:42:50.464Z,66.16
2022-12-17T13:43:57.048Z,65.02
2022-12-17T13:45:00.094Z,65.04
2022-12-17T13:46:03.436Z,64.74
2022-12-17T13:47:06.245Z,63.86
2022-12-17T13:48:21.119Z,63.18
2022-12-17T13:49:26.245Z,62.31
2022-12-17T13:50:34.789Z,62.70
2022-12-17T13:51:38.743Z,62.42
2022-12-17T13:52:41.012Z,62.03
2022-12-17T13:53:53.981Z,61.51
2022-12-17T13:55:10.888Z,61.28
2022-12-17T13:56:13.671Z,60.81
2022-12-17T13:57:19.408Z,61.25
2022-12-17T13:58:24.092Z,60.72
2022-12-17T13:59:27.609Z,60.25
2022-12-17T14:00:32.687Z,60.50
2022-12-17T14:01:45.795Z,60.87
2022-12-17T14:02:49.168Z,60.25
2022-12-17T14:04:06.269Z,60.23
2022-12-17T14:05:26.283Z,59.92
2022-12-17T14:06:34.260Z,60.16
2022-12-17T14:07:40.831Z,60.77
2022-12-17T14:08:45.640Z,61.44
2022-12-17T14:09:48.976Z,61.38
2022-12-17T14:11:16.003Z,61.00
2022-12-17T14:12:23.834Z,60.49
2022-12-17T14:13:27.400Z,60.56
2022-12-17T14:14:34.709Z,61.11
2022-12-17T14:15:38.610Z,61.53
2022-12-17T14:16:47.478Z,62.39
2022-12-17T14:17:56.594Z,62.23
2022-12-17T14:19:00.053Z,62.12
2022-12-17T14:20:06.449Z,61.83
2022-12-17T14:21:10.212Z,61.33
2022-12-17T14:22:20.897Z,61.85
2022-12-17T14:23:28.914Z,62.37
2022-12-17T14:24:32.388Z,62.28
2022-12-17T14:25:37.047Z,62.37
2022-12-17T14:26:51.044Z,62.02
2022-12-17T14:27:56.962Z,62.05
2022-12-17T14:29:00.390Z,61.88
2022-12-17T14:30:19.565Z,61.88
2022-12-17T14:31:27.695Z,62.19
2022-12-17T14:32:37.275Z,62.60
2022-12-17T14:33:40.533Z,63.22
2022-12-17T14:34:44.233Z,63.57
2022-12-17T14:35:52.626Z,63.61
2022-12-17T14:36:58.419Z,63.50
2022-12-17T14:38:01.051Z,63.17
2022-12-17T14:39:11.378Z,63.54
2022-12-17T14:40:16.530Z,63.81
2022-12-17T14:41:37.418Z,64.43
2022-12-17T14:42:42.291Z,64.35
2022-12-17T14:43:44.920Z,64.53
2022-12-17T14:44:53.711Z,64.64
2022-12-17T14:46:18.231Z,65.06
2022-12-17T14:47:25.002Z,64.88
2022-12-17T14:48:48.179Z,65.25
2022-12-17T14:50:01.096Z,65.29
2022-12-17T14:51:04.845Z,65.61
2022-12-17T14:52:14.598Z,65.66
2022-12-17T14:53:27.162Z,65.90
2022-12-17T14:54:32.323Z,66.32
2022-12-17T14:55:39.150Z,65.99
2022-12-17T14:56:42.161Z,66.19
2022-12-17T14:57:47.062Z,67.00
2022-12-17T14:58:49.396Z,66.95
2022-12-17T14:59:53.378Z,67.58
2022-12-17T15:01:04.990Z,67.93
2022-12-17T15:02:20.647Z,67.97
2022-12-17T15:03:29.744Z,67.93
2022-12-17T15:04:33.672Z,68.19
2022-12-17T15:05:39.271Z,69.46
2022-12-17T15:06:42.765Z,69.81
2022-12-17T15:07:46.363Z,70.10
2022-12-17T15:08:50.508Z,70.73
2022-12-17T15:09:54.748Z,71.04
2022-12-17T15:10:58.287Z,71.04
2022-12-17T15:12:02.104Z,71.06
2022-12-17T15:13:08.447Z,71.09
2022-12-17T15:14:12.347Z,70.56
2022-12-17T15:15:16.463Z,70.34
2022-12-17T15:16:20.136Z,70.31
2022-12-17T15:17:22.534Z,70.42
2022-12-17T15:18:26.438Z,69.87
2022-12-17T15:19:29.019Z,69.50
2022-12-17T15:20:32.529Z,69.29
2022-12-17T15:21:35.164Z,69.50
2022-12-17T15:22:39.401Z,68.97
2022-12-17T15:23:45.181Z,69.13
2022-12-17T15:24:47.776Z,69.64
2022-12-17T15:25:55.190Z,69.03
2022-12-17T15:26:58.205Z,69.16
2022-12-17T15:28:02.334Z,69.16
2022-12-17T15:29:06.388Z,69.29
2022-12-17T15:30:14.695Z,68.94
2022-12-17T15:31:23.183Z,69.03
2022-12-17T15:32:30.073Z,68.26
2022-12-17T15:33:32.525Z,68.05
2022-12-17T15:34:36.092Z,68.01
2022-12-17T15:35:39.871Z,67.98
2022-12-17T15:36:43.313Z,68.09
2022-12-17T15:37:46.893Z,68.28
2022-12-17T15:38:50.289Z,67.90
2022-12-17T15:39:53.299Z,67.34
2022-12-17T15:40:57.070Z,67.49
2022-12-17T15:42:30.416Z,67.14
2022-12-17T15:43:33.276Z,67.86
2022-12-17T15:44:36.879Z,68.31
2022-12-17T15:45:41.259Z,68.02
2022-12-17T15:46:43.648Z,68.17
2022-12-17T15:47:47.090Z,67.78
2022-12-17T15:48:52.183Z,67.68
2022-12-17T15:49:54.499Z,67.58
2022-12-17T15:50:58.859Z,67.15
2022-12-17T15:52:01.410Z,67.23
2022-12-17T15:53:04.875Z,67.07
2022-12-17T15:54:09.098Z,67.12
2022-12-17T15:55:12.888Z,66.94
2022-12-17T15:56:21.696Z,66.73
2022-12-17T15:57:23.997Z,66.97
2022-12-17T15:58:27.495Z,66.87
2022-12-17T15:59:29.928Z,67.11
2022-12-17T16:00:35.024Z,66.93
2022-12-17T16:01:37.436Z,67.33
2022-12-17T16:02:50.231Z,67.64
2022-12-17T16:03:53.615Z,67.66
2022-12-17T16:04:57.019Z,67.66
2022-12-17T16:06:02.291Z,67.79
2022-12-17T16:07:06.313Z,67.96
2022-12-17T16:08:08.952Z,68.08
2022-12-17T16:09:13.601Z,67.80
2022-12-17T16:10:16.283Z,67.85
2022-12-17T16:11:20.726Z,68.02
2022-12-17T16:12:23.854Z,68.29
2022-12-17T16:13:27.185Z,68.42
2022-12-17T16:14:29.634Z,68.55
2022-12-17T16:15:35.168Z,68.56
2022-12-17T16:16:37.729Z,68.35
2022-12-17T16:17:43.550Z,68.67
2022-12-17T16:18:45.909Z,68.55
2022-12-17T16:19:50.138Z,68.44
2022-12-17T16:20:53.468Z,68.92
2022-12-17T16:21:56.042Z,68.64
2022-12-17T16:23:01.255Z,68.87
2022-12-17T16:24:05.667Z,69.20
2022-12-17T16:25:15.376Z,69.30
2022-12-17T16:26:27.642Z,69.32
2022-12-17T16:27:30.884Z,69.09
2022-12-17T16:28:44.167Z,69.13
2022-12-17T16:29:48.254Z,70.17
2022-12-17T16:31:01.270Z,69.93
2022-12-17T16:32:05.175Z,70.18
2022-12-17T16:33:08.686Z,70.27
2022-12-17T16:34:13.632Z,70.29
2022-12-17T16:35:18.676Z,70.63
2022-12-17T16:36:22.711Z,71.06
2022-12-17T16:37:30.387Z,71.21
2022-12-17T16:38:34.004Z,71.23
2022-12-17T16:39:38.631Z,71.63
2022-12-17T16:40:48.301Z,71.01
2022-12-17T16:41:52.783Z,71.77
2022-12-17T16:42:56.591Z,71.29
2022-12-17T16:44:03.440Z,71.32
2022-12-17T16:45:10.467Z,71.92
2022-12-17T16:46:27.524Z,72.06
2022-12-17T16:47:30.951Z,73.00
2022-12-17T16:48:38.519Z,73.68
2022-12-17T16:49:44.246Z,73.37
2022-12-17T16:50:47.482Z,74.14
2022-12-17T16:51:51.988Z,73.68
2022-12-17T16:52:55.454Z,73.34
2022-12-17T16:53:59.091Z,74.63
2022-12-17T16:55:04.889Z,74.32
2022-12-17T16:56:08.201Z,74.61
2022-12-17T16:57:11.533Z,74.01
2022-12-17T16:58:16.655Z,73.80
2022-12-17T16:59:20.106Z,73.68
2022-12-17T17:00:24.383Z,73.71
2022-12-17T17:01:29.900Z,72.80
2022-12-17T17:02:33.835Z,72.60
2022-12-17T17:03:39.848Z,72.85
2022-12-17T17:04:45.464Z,72.74